createdAt,value
2018-08-03T04:10:03.479Z,1016.08
2018-08-03T04:10:28.989Z,1016.07
2018-08-03T04:10:54.514Z,1016.08
2018-08-03T04:11:19.999Z,1016.08
2018-08-03T04:11:45.413Z,1016.08
2018-08-03T04:12:10.892Z,1016.07
2018-08-03T04:12:36.329Z,1016.1
2018-08-03T04:13:01.844Z,1016.05
2018-08-03T04:13:27.294Z,1016.07
2018-08-03T04:13:52.769Z,1016.05
2018-08-03T04:14:18.273Z,1016.05
2018-08-03T04:14:43.751Z,1016.06
2018-08-03T04:15:09.204Z,1016.07
2018-08-03T04:15:34.670Z,1016.05
2018-08-03T04:16:00.125Z,1016.05
2018-08-03T04:16:25.572Z,1016.11
2018-08-03T04:16:51.059Z,1016.07
2018-08-03T04:17:16.513Z,1016.06
2018-08-03T04:17:42.008Z,1016.03
2018-08-03T04:18:07.459Z,1016.04
2018-08-03T04:18:32.909Z,1016.04
2018-08-03T04:18:58.377Z,1016.04
2018-08-03T04:19:23.868Z,1016.03
2018-08-03T04:19:49.413Z,1016.04
2018-08-03T04:20:14.910Z,1016.06
2018-08-03T04:20:40.423Z,1016.01
2018-08-03T04:21:05.909Z,1016.02
2018-08-03T04:21:31.390Z,1016.04
2018-08-03T04:21:56.870Z,1016.03
2018-08-03T04:22:22.397Z,1016.02
2018-08-03T04:22:47.920Z,1015.99
2018-08-03T04:23:13.386Z,1016.01
2018-08-03T04:23:38.892Z,1015.98
2018-08-03T04:24:04.405Z,1015.99
2018-08-03T04:24:29.878Z,1016.02
2018-08-03T04:24:55.365Z,1015.94
2018-08-03T04:25:20.875Z,1015.99
2018-08-03T04:25:46.369Z,1016
2018-08-03T04:26:11.874Z,1015.98
2018-08-03T04:26:37.361Z,1016
2018-08-03T04:27:02.881Z,1016.02
2018-08-03T04:27:28.392Z,1015.99
2018-08-03T04:27:53.889Z,1016
2018-08-03T04:28:19.401Z,1016.01
2018-08-03T04:28:44.890Z,1016.02
2018-08-03T04:29:10.388Z,1015.98
2018-08-03T04:29:35.940Z,1016.01
2018-08-03T04:30:01.466Z,1015.98
2018-08-03T04:30:26.965Z,1015.98
2018-08-03T04:30:52.448Z,1016.02
2018-08-03T04:31:18.014Z,1015.99
2018-08-03T04:31:43.476Z,1015.98
2018-08-03T04:32:08.978Z,1015.97
2018-08-03T04:32:34.475Z,1015.96
2018-08-03T04:32:59.973Z,1015.97
2018-08-03T04:33:25.475Z,1015.99
2018-08-03T04:33:50.961Z,1015.97
2018-08-03T04:34:16.484Z,1015.94
2018-08-03T04:34:41.960Z,1015.95
2018-08-03T04:35:07.440Z,1015.92
2018-08-03T04:35:32.974Z,1015.92
2018-08-03T04:35:58.448Z,1015.92
2018-08-03T04:36:23.972Z,1015.92
2018-08-03T04:36:49.526Z,1015.97
2018-08-03T04:37:15.048Z,1015.95
2018-08-03T04:37:40.955Z,1015.96
2018-08-03T04:38:06.524Z,1015.97
2018-08-03T04:38:32.038Z,1015.93
2018-08-03T04:38:57.670Z,1015.96
2018-08-03T04:39:23.130Z,1015.96
2018-08-03T04:39:48.621Z,1015.93
2018-08-03T04:40:14.181Z,1015.98
2018-08-03T04:41:33.143Z,1015.98
2018-08-03T04:41:58.641Z,1015.98
2018-08-03T04:42:24.161Z,1015.98
2018-08-03T04:42:49.677Z,1015.97
2018-08-03T04:43:15.162Z,1016
2018-08-03T04:43:40.650Z,1015.99
2018-08-03T04:44:06.146Z,1015.97
2018-08-03T04:44:31.616Z,1016.01
2018-08-03T04:44:57.126Z,1016.03
2018-08-03T04:45:22.596Z,1016.03
2018-08-03T04:45:48.096Z,1016.01
2018-08-03T04:46:13.596Z,1016
2018-08-03T04:46:39.099Z,1016.04
2018-08-03T04:47:04.621Z,1016.01
2018-08-03T04:47:30.094Z,1016.03
2018-08-03T04:47:55.581Z,1016.03
2018-08-03T04:48:21.093Z,1016.04
2018-08-03T04:48:46.725Z,1016
2018-08-03T04:49:12.090Z,1016.01
2018-08-03T04:49:37.593Z,1016.02
2018-08-03T04:50:03.066Z,1016.01
2018-08-03T04:50:28.546Z,1016.02
2018-08-03T04:50:54.032Z,1015.99
2018-08-03T04:51:19.507Z,1016.02
2018-08-03T04:51:45.014Z,1016.01
2018-08-03T04:52:10.499Z,1016.03
2018-08-03T04:52:36.003Z,1016.04
2018-08-03T04:53:01.502Z,1016.03
2018-08-03T04:53:27.008Z,1016.02
2018-08-03T04:53:52.542Z,1016.01
2018-08-03T04:54:18.013Z,1016.03
2018-08-03T04:54:43.552Z,1016.02
2018-08-03T04:55:09.016Z,1016.01
2018-08-03T04:55:34.519Z,1015.99
2018-08-03T04:56:00.009Z,1016.05
2018-08-03T04:56:25.492Z,1016.03
2018-08-03T04:56:50.939Z,1016.01
2018-08-03T04:57:16.485Z,1016.05
2018-08-03T04:57:41.976Z,1016
2018-08-03T04:58:07.479Z,1016.07
2018-08-03T04:58:32.995Z,1016.04
2018-08-03T04:58:58.495Z,1016.08
2018-08-03T04:59:23.997Z,1016.03
2018-08-03T04:59:49.486Z,1016.03
2018-08-03T05:00:14.988Z,1016.07
2018-08-03T05:00:40.485Z,1016.05
2018-08-03T05:01:05.989Z,1016.07
2018-08-03T05:01:31.481Z,1016.08
2018-08-03T05:01:56.988Z,1016.1
2018-08-03T05:02:22.506Z,1016.07
2018-08-03T05:02:48.021Z,1016.08
2018-08-03T05:03:13.573Z,1016.08
2018-08-03T05:03:39.098Z,1016.08
2018-08-03T05:04:04.618Z,1016.05
2018-08-03T05:04:30.075Z,1016.08
2018-08-03T05:04:55.568Z,1016.06
2018-08-03T05:05:21.065Z,1016.06
2018-08-03T05:05:46.592Z,1016.07
2018-08-03T05:06:12.116Z,1016.09
2018-08-03T05:07:31.061Z,1016.1
2018-08-03T05:07:56.535Z,1016.1
2018-08-03T05:08:22.045Z,1016.09
2018-08-03T05:08:47.553Z,1016.13
2018-08-03T05:09:13.041Z,1016.14
2018-08-03T05:09:38.552Z,1016.11
2018-08-03T05:10:04.055Z,1016.12
2018-08-03T05:10:29.510Z,1016.09
2018-08-03T05:10:54.996Z,1016.13
2018-08-03T05:11:20.482Z,1016.13
2018-08-03T05:11:45.970Z,1016.16
2018-08-03T05:12:11.452Z,1016.12
2018-08-03T05:12:36.968Z,1016.14
2018-08-03T05:13:02.474Z,1016.1
2018-08-03T05:13:27.962Z,1016.16
2018-08-03T05:13:53.484Z,1016.18
2018-08-03T05:14:19.005Z,1016.14
2018-08-03T05:14:44.505Z,1016.15
2018-08-03T05:15:09.967Z,1016.2
2018-08-03T05:15:35.642Z,1016.2
2018-08-03T05:16:00.978Z,1016.16
2018-08-03T05:16:26.501Z,1016.16
2018-08-03T05:16:51.958Z,1016.16
2018-08-03T05:17:17.456Z,1016.14
2018-08-03T05:17:42.960Z,1016.15
2018-08-03T05:18:08.454Z,1016.16
2018-08-03T05:18:33.940Z,1016.15
2018-08-03T05:18:59.441Z,1016.17
2018-08-03T05:19:24.924Z,1016.16
2018-08-03T05:19:50.403Z,1016.17
2018-08-03T05:20:15.887Z,1016.15
2018-08-03T05:20:41.372Z,1016.14
2018-08-03T05:21:06.854Z,1016.14
2018-08-03T05:21:32.360Z,1016.16
2018-08-03T05:21:57.850Z,1016.16
2018-08-03T05:22:23.340Z,1016.14
2018-08-03T05:22:48.819Z,1016.15
2018-08-03T05:23:14.316Z,1016.16
2018-08-03T05:23:39.822Z,1016.15
2018-08-03T05:24:05.323Z,1016.16
2018-08-03T05:24:30.820Z,1016.15
2018-08-03T05:24:56.327Z,1016.16
2018-08-03T05:25:21.799Z,1016.13
2018-08-03T05:25:47.317Z,1016.16
2018-08-03T05:26:12.815Z,1016.17
2018-08-03T05:26:38.309Z,1016.15
2018-08-03T05:27:03.794Z,1016.17
2018-08-03T05:27:29.288Z,1016.17
2018-08-03T05:27:54.771Z,1016.15
2018-08-03T05:28:20.256Z,1016.16
2018-08-03T05:28:45.757Z,1016.14
2018-08-03T05:29:11.234Z,1016.16
2018-08-03T05:29:36.745Z,1016.11
2018-08-03T05:30:02.196Z,1016.18
2018-08-03T05:30:27.892Z,1016.14
2018-08-03T05:30:53.223Z,1016.18
2018-08-03T05:31:18.750Z,1016.14
2018-08-03T05:31:44.273Z,1016.13
2018-08-03T05:32:52.986Z,1016.14
2018-08-03T05:33:18.484Z,1016.13
2018-08-03T05:33:43.972Z,1016.11
2018-08-03T05:34:09.470Z,1016.16
2018-08-03T05:34:34.973Z,1016.12
2018-08-03T05:35:00.432Z,1016.14
2018-08-03T05:35:25.953Z,1016.15
2018-08-03T05:35:51.447Z,1016.11
2018-08-03T05:36:17.026Z,1016.15
2018-08-03T05:36:42.425Z,1016.15
2018-08-03T05:37:07.924Z,1016.14
2018-08-03T05:37:33.405Z,1016.15
2018-08-03T05:37:58.952Z,1016.19
2018-08-03T05:38:24.443Z,1016.14
2018-08-03T05:38:49.918Z,1016.14
2018-08-03T05:39:15.408Z,1016.18
2018-08-03T05:39:40.904Z,1016.16
2018-08-03T05:40:06.402Z,1016.19
2018-08-03T05:40:31.909Z,1016.19
2018-08-03T05:40:57.358Z,1016.21
2018-08-03T05:41:22.826Z,1016.2
2018-08-03T05:41:48.354Z,1016.15
2018-08-03T05:42:13.839Z,1016.15
2018-08-03T05:42:39.442Z,1016.16
2018-08-03T05:43:04.833Z,1016.17
2018-08-03T05:43:30.335Z,1016.16
2018-08-03T05:43:55.835Z,1016.12
2018-08-03T05:44:21.329Z,1016.14
2018-08-03T05:44:46.829Z,1016.13
2018-08-03T05:45:12.339Z,1016.11
2018-08-03T05:45:37.971Z,1016.15
2018-08-03T05:46:03.324Z,1016.15
2018-08-03T05:46:28.807Z,1016.16
2018-08-03T05:46:54.299Z,1016.17
2018-08-03T05:47:19.802Z,1016.16
2018-08-03T05:47:45.337Z,1016.18
2018-08-03T05:48:10.855Z,1016.17
2018-08-03T05:48:36.364Z,1016.16
2018-08-03T05:49:01.872Z,1016.14
2018-08-03T05:49:27.369Z,1016.17
2018-08-03T05:49:52.868Z,1016.15
2018-08-03T05:50:18.446Z,1016.16
2018-08-03T05:50:43.867Z,1016.2
2018-08-03T05:51:57.765Z,1016.2
2018-08-03T05:52:23.300Z,1016.14
2018-08-03T05:52:48.730Z,1016.2
2018-08-03T05:53:14.215Z,1016.19
2018-08-03T05:53:39.705Z,1016.23
2018-08-03T05:54:05.203Z,1016.17
2018-08-03T05:54:30.740Z,1016.2
2018-08-03T05:54:56.291Z,1016.18
2018-08-03T05:55:21.812Z,1016.21
2018-08-03T05:55:47.362Z,1016.21
2018-08-03T05:56:12.875Z,1016.22
2018-08-03T05:56:38.400Z,1016.21
2018-08-03T05:57:03.881Z,1016.24
2018-08-03T05:57:29.399Z,1016.22
2018-08-03T05:57:54.908Z,1016.23
2018-08-03T05:58:20.448Z,1016.23
2018-08-03T05:58:45.922Z,1016.27
2018-08-03T05:59:11.387Z,1016.21
2018-08-03T05:59:36.898Z,1016.26
2018-08-03T06:00:02.394Z,1016.26
2018-08-03T06:00:27.886Z,1016.27
2018-08-03T06:00:53.390Z,1016.23
2018-08-03T06:01:18.888Z,1016.26
2018-08-03T06:01:44.394Z,1016.21
2018-08-03T06:02:09.914Z,1016.23
2018-08-03T06:03:13.528Z,1016.25
2018-08-03T06:03:39.104Z,1016.25
2018-08-03T06:04:04.595Z,1016.28
2018-08-03T06:04:30.056Z,1016.22
2018-08-03T06:04:55.546Z,1016.2
2018-08-03T06:05:21.090Z,1016.22
2018-08-03T06:05:46.561Z,1016.23
2018-08-03T06:06:12.048Z,1016.25
2018-08-03T06:06:37.546Z,1016.25
2018-08-03T06:07:03.059Z,1016.24
2018-08-03T06:07:28.547Z,1016.24
2018-08-03T06:07:54.042Z,1016.31
2018-08-03T06:08:19.673Z,1016.24
2018-08-03T06:08:45.092Z,1016.23
2018-08-03T06:09:10.615Z,1016.22
2018-08-03T06:09:36.156Z,1016.21
2018-08-03T06:10:01.633Z,1016.25
2018-08-03T06:10:27.107Z,1016.29
2018-08-03T06:10:52.566Z,1016.26
2018-08-03T06:11:18.096Z,1016.23
2018-08-03T06:11:43.628Z,1016.26
2018-08-03T06:12:09.164Z,1016.26
2018-08-03T06:12:34.689Z,1016.26
2018-08-03T06:13:00.134Z,1016.24
2018-08-03T06:13:25.705Z,1016.23
2018-08-03T06:13:51.218Z,1016.23
2018-08-03T06:14:16.774Z,1016.22
2018-08-03T06:14:42.288Z,1016.23
2018-08-03T06:15:07.800Z,1016.24
2018-08-03T06:15:33.302Z,1016.23
2018-08-03T06:15:58.772Z,1016.29
2018-08-03T06:16:24.249Z,1016.26
2018-08-03T06:16:49.769Z,1016.27
2018-08-03T06:17:15.275Z,1016.26
2018-08-03T06:17:40.710Z,1016.25
2018-08-03T06:18:06.173Z,1016.27
2018-08-03T06:18:31.700Z,1016.27
2018-08-03T06:18:57.141Z,1016.29
2018-08-03T06:19:22.618Z,1016.28
2018-08-03T06:19:48.084Z,1016.25
2018-08-03T06:20:13.578Z,1016.28
2018-08-03T06:20:39.071Z,1016.26
2018-08-03T06:21:04.547Z,1016.32
2018-08-03T06:21:30.008Z,1016.28
2018-08-03T06:21:55.534Z,1016.27
2018-08-03T06:22:21.007Z,1016.25
2018-08-03T06:22:46.442Z,1016.26
2018-08-03T06:23:11.972Z,1016.27
2018-08-03T06:23:37.364Z,1016.28
2018-08-03T06:24:02.875Z,1016.27
2018-08-03T06:24:28.368Z,1016.29
2018-08-03T06:24:53.828Z,1016.3
2018-08-03T06:25:19.338Z,1016.3
2018-08-03T06:25:44.796Z,1016.3
2018-08-03T06:26:10.298Z,1016.28
2018-08-03T06:26:35.833Z,1016.29
2018-08-03T06:27:01.275Z,1016.3
2018-08-03T06:27:26.730Z,1016.32
2018-08-03T06:27:52.222Z,1016.27
2018-08-03T06:28:17.772Z,1016.31
2018-08-03T06:28:43.155Z,1016.31
2018-08-03T06:29:08.632Z,1016.31
2018-08-03T06:29:34.167Z,1016.29
2018-08-03T06:29:59.590Z,1016.31
2018-08-03T06:30:25.127Z,1016.32
2018-08-03T06:30:50.665Z,1016.3
2018-08-03T06:31:16.144Z,1016.29
2018-08-03T06:31:41.654Z,1016.26
2018-08-03T06:32:07.113Z,1016.28
2018-08-03T06:32:32.582Z,1016.31
2018-08-03T06:32:58.029Z,1016.27
2018-08-03T06:33:23.554Z,1016.27
2018-08-03T06:33:48.992Z,1016.26
2018-08-03T06:34:14.446Z,1016.27
2018-08-03T06:34:39.947Z,1016.27
2018-08-03T06:35:05.439Z,1016.25
2018-08-03T06:35:30.863Z,1016.26
2018-08-03T06:35:56.380Z,1016.24
2018-08-03T06:36:21.893Z,1016.29
2018-08-03T06:36:47.333Z,1016.23
2018-08-03T06:37:12.813Z,1016.25
2018-08-03T06:37:38.322Z,1016.23
2018-08-03T06:38:03.794Z,1016.29
2018-08-03T06:38:29.319Z,1016.29
2018-08-03T06:38:54.794Z,1016.31
2018-08-03T06:39:20.239Z,1016.27
2018-08-03T06:39:45.740Z,1016.24
2018-08-03T06:40:11.273Z,1016.29
2018-08-03T06:40:36.758Z,1016.27
2018-08-03T06:41:02.227Z,1016.33
2018-08-03T06:41:27.708Z,1016.28
2018-08-03T06:41:53.190Z,1016.31
2018-08-03T06:42:18.661Z,1016.29
2018-08-03T06:42:44.162Z,1016.27
2018-08-03T06:43:09.660Z,1016.26
2018-08-03T06:43:35.151Z,1016.27
2018-08-03T06:44:00.651Z,1016.3
2018-08-03T06:44:26.123Z,1016.3
2018-08-03T06:44:51.585Z,1016.31
2018-08-03T06:45:17.077Z,1016.29
2018-08-03T06:45:42.566Z,1016.3
2018-08-03T06:46:08.072Z,1016.32
2018-08-03T06:46:33.539Z,1016.3
2018-08-03T06:46:58.990Z,1016.31
2018-08-03T06:47:24.481Z,1016.27
2018-08-03T06:47:50.045Z,1016.28
2018-08-03T06:48:15.503Z,1016.28
2018-08-03T06:48:41.016Z,1016.3
2018-08-03T06:49:06.497Z,1016.33
2018-08-03T06:49:31.953Z,1016.32
2018-08-03T06:49:57.408Z,1016.29
2018-08-03T06:50:23.000Z,1016.31
2018-08-03T06:50:48.471Z,1016.28
2018-08-03T06:51:13.913Z,1016.29
2018-08-03T06:51:39.598Z,1016.28
2018-08-03T06:52:04.901Z,1016.28
2018-08-03T06:52:30.355Z,1016.3
2018-08-03T06:52:55.833Z,1016.29
2018-08-03T06:53:21.336Z,1016.31
2018-08-03T06:53:46.873Z,1016.31
2018-08-03T06:54:12.303Z,1016.3
2018-08-03T06:54:37.776Z,1016.31
2018-08-03T06:55:03.223Z,1016.31
2018-08-03T06:55:28.758Z,1016.25
2018-08-03T06:55:54.273Z,1016.3
2018-08-03T06:56:19.735Z,1016.29
2018-08-03T06:56:45.220Z,1016.3
2018-08-03T06:57:10.703Z,1016.32
2018-08-03T06:57:36.366Z,1016.32
2018-08-03T06:58:01.722Z,1016.31
2018-08-03T06:58:27.271Z,1016.29
2018-08-03T06:58:52.753Z,1016.27
2018-08-03T06:59:18.231Z,1016.31
2018-08-03T06:59:43.717Z,1016.32
2018-08-03T07:00:09.201Z,1016.28
2018-08-03T07:00:34.669Z,1016.31
2018-08-03T07:01:00.106Z,1016.33
2018-08-03T07:01:25.597Z,1016.3
2018-08-03T07:01:51.098Z,1016.31
2018-08-03T07:02:16.559Z,1016.27
2018-08-03T07:02:42.072Z,1016.32
2018-08-03T07:03:07.550Z,1016.3
2018-08-03T07:03:33.042Z,1016.31
2018-08-03T07:03:58.536Z,1016.29
2018-08-03T07:04:24.281Z,1016.31
2018-08-03T07:04:49.537Z,1016.32
2018-08-03T07:05:14.987Z,1016.31
2018-08-03T07:05:40.508Z,1016.32
2018-08-03T07:06:05.982Z,1016.31
2018-08-03T07:06:31.420Z,1016.33
2018-08-03T07:06:56.930Z,1016.29
2018-08-03T07:07:22.342Z,1016.32
2018-08-03T07:07:47.915Z,1016.3
2018-08-03T07:08:13.389Z,1016.31
2018-08-03T07:08:38.861Z,1016.31
2018-08-03T07:09:04.318Z,1016.32
2018-08-03T07:09:29.808Z,1016.32
2018-08-03T07:09:55.289Z,1016.33
2018-08-03T07:10:20.712Z,1016.32
2018-08-03T07:10:46.271Z,1016.35
2018-08-03T07:11:11.713Z,1016.32
2018-08-03T07:11:37.186Z,1016.32
2018-08-03T07:12:02.684Z,1016.27
2018-08-03T07:12:28.641Z,1016.3
2018-08-03T07:12:53.647Z,1016.28
2018-08-03T07:13:19.132Z,1016.28
2018-08-03T07:13:44.581Z,1016.32
2018-08-03T07:14:10.065Z,1016.29
2018-08-03T07:14:35.540Z,1016.28
2018-08-03T07:15:01.104Z,1016.31
2018-08-03T07:15:26.465Z,1016.28
2018-08-03T07:15:51.960Z,1016.27
2018-08-03T07:16:17.397Z,1016.26
2018-08-03T07:16:42.974Z,1016.31
2018-08-03T07:17:08.451Z,1016.26
2018-08-03T07:17:33.924Z,1016.3
2018-08-03T07:17:59.398Z,1016.31
2018-08-03T07:18:24.855Z,1016.29
2018-08-03T07:18:50.363Z,1016.25
2018-08-03T07:19:15.840Z,1016.27
2018-08-03T07:19:41.288Z,1016.29
2018-08-03T07:20:06.950Z,1016.28
2018-08-03T07:20:32.374Z,1016.27
2018-08-03T07:20:57.840Z,1016.29
2018-08-03T07:21:23.285Z,1016.3
2018-08-03T07:21:48.728Z,1016.29
2018-08-03T07:22:14.220Z,1016.27
2018-08-03T07:22:39.719Z,1016.28
2018-08-03T07:23:05.213Z,1016.28
2018-08-03T07:23:30.692Z,1016.29
2018-08-03T07:23:56.202Z,1016.29
2018-08-03T07:24:21.694Z,1016.32
2018-08-03T07:24:47.200Z,1016.3
2018-08-03T07:25:12.643Z,1016.3
2018-08-03T07:25:38.140Z,1016.29
2018-08-03T07:26:03.737Z,1016.27
2018-08-03T07:26:29.129Z,1016.26
2018-08-03T07:26:54.597Z,1016.29
2018-08-03T07:27:20.112Z,1016.3
2018-08-03T07:27:45.593Z,1016.28
2018-08-03T07:28:11.073Z,1016.28
2018-08-03T07:28:36.571Z,1016.28
2018-08-03T07:29:02.051Z,1016.28
2018-08-03T07:29:27.537Z,1016.3
2018-08-03T07:29:53.069Z,1016.29
2018-08-03T07:30:18.595Z,1016.27
2018-08-03T07:30:44.085Z,1016.27
2018-08-03T07:31:09.614Z,1016.28
2018-08-03T07:31:35.146Z,1016.26
2018-08-03T07:32:00.565Z,1016.3
2018-08-03T07:32:26.108Z,1016.27
2018-08-03T07:32:51.618Z,1016.25
2018-08-03T07:33:17.107Z,1016.27
2018-08-03T07:34:16.420Z,1016.28
2018-08-03T07:34:41.920Z,1016.27
2018-08-03T07:35:07.409Z,1016.28
2018-08-03T07:35:32.889Z,1016.29
2018-08-03T07:35:58.392Z,1016.28
2018-08-03T07:36:23.894Z,1016.3
2018-08-03T07:36:49.408Z,1016.29
2018-08-03T07:37:14.822Z,1016.27
2018-08-03T07:37:40.293Z,1016.3
2018-08-03T07:38:05.780Z,1016.29
2018-08-03T07:38:31.251Z,1016.3
2018-08-03T07:38:56.784Z,1016.28
2018-08-03T07:39:22.239Z,1016.28
2018-08-03T07:39:47.834Z,1016.24
2018-08-03T07:40:13.323Z,1016.3
2018-08-03T07:40:38.719Z,1016.27
2018-08-03T07:41:04.216Z,1016.27
2018-08-03T07:41:29.719Z,1016.29
2018-08-03T07:41:55.203Z,1016.31
2018-08-03T07:42:20.767Z,1016.26
2018-08-03T07:42:46.188Z,1016.28
2018-08-03T07:43:11.650Z,1016.25
2018-08-03T07:43:37.194Z,1016.24
2018-08-03T07:44:02.612Z,1016.23
2018-08-03T07:44:28.112Z,1016.25
2018-08-03T07:44:53.671Z,1016.22
2018-08-03T07:45:19.059Z,1016.23
2018-08-03T07:45:44.599Z,1016.18
2018-08-03T07:46:10.019Z,1016.22
2018-08-03T07:46:35.493Z,1016.19
2018-08-03T07:47:00.998Z,1016.2
2018-08-03T07:47:26.615Z,1016.2
2018-08-03T07:47:52.137Z,1016.19
2018-08-03T07:48:17.569Z,1016.14
2018-08-03T07:48:43.059Z,1016.15
2018-08-03T07:49:08.597Z,1016.18
2018-08-03T07:49:34.112Z,1016.18
2018-08-03T07:49:59.573Z,1016.15
2018-08-03T07:50:25.058Z,1016.15
2018-08-03T07:50:50.498Z,1016.13
2018-08-03T07:51:16.005Z,1016.18
2018-08-03T07:51:41.493Z,1016.17
2018-08-03T07:52:06.976Z,1016.16
2018-08-03T07:52:32.455Z,1016.14
2018-08-03T07:52:57.997Z,1016.17
2018-08-03T07:53:23.392Z,1016.18
2018-08-03T07:53:48.873Z,1016.19
2018-08-03T07:54:14.335Z,1016.15
2018-08-03T07:54:39.809Z,1016.17
2018-08-03T07:55:05.295Z,1016.14
2018-08-03T07:55:30.784Z,1016.19
2018-08-03T07:55:56.274Z,1016.2
2018-08-03T07:56:21.792Z,1016.16
2018-08-03T07:56:47.270Z,1016.18
2018-08-03T07:57:45.827Z,1016.16
2018-08-03T07:58:11.323Z,1016.18
2018-08-03T07:58:36.855Z,1016.16
2018-08-03T07:59:02.347Z,1016.17
2018-08-03T07:59:27.821Z,1016.17
2018-08-03T07:59:53.291Z,1016.18
2018-08-03T08:00:18.805Z,1016.17
2018-08-03T08:00:44.347Z,1016.17
2018-08-03T08:01:09.853Z,1016.17
2018-08-03T08:01:35.396Z,1016.19
2018-08-03T08:02:00.852Z,1016.17
2018-08-03T08:02:26.433Z,1016.19
2018-08-03T08:02:51.905Z,1016.19
2018-08-03T08:03:17.439Z,1016.18
2018-08-03T08:03:42.897Z,1016.21
2018-08-03T08:04:08.426Z,1016.15
2018-08-03T08:04:33.887Z,1016.15
2018-08-03T08:04:59.395Z,1016.17
2018-08-03T08:05:24.927Z,1016.15
2018-08-03T08:05:50.421Z,1016.12
2018-08-03T08:06:15.922Z,1016.11
2018-08-03T08:06:41.414Z,1016.14
2018-08-03T08:07:06.890Z,1016.15
2018-08-03T08:07:32.425Z,1016.13
2018-08-03T08:07:57.943Z,1016.11
2018-08-03T08:08:23.421Z,1016.1
2018-08-03T08:08:48.946Z,1016.11
2018-08-03T08:09:14.456Z,1016.11
2018-08-03T08:09:40.001Z,1016.1
2018-08-03T08:10:05.400Z,1016.13
2018-08-03T08:10:30.929Z,1016.09
2018-08-03T08:10:56.504Z,1016.14
2018-08-03T08:11:21.976Z,1016.1
2018-08-03T08:11:47.469Z,1016.11
2018-08-03T08:12:12.990Z,1016.12
2018-08-03T08:12:38.487Z,1016.12
2018-08-03T08:13:03.979Z,1016.09
2018-08-03T08:13:29.485Z,1016.08
2018-08-03T08:13:55.018Z,1016.07
2018-08-03T08:14:20.512Z,1016.1
2018-08-03T08:14:46.037Z,1016.06
2018-08-03T08:15:11.531Z,1016.09
2018-08-03T08:15:37.047Z,1016.07
2018-08-03T08:16:02.507Z,1016.09
2018-08-03T08:16:28.063Z,1016.09
2018-08-03T08:16:53.583Z,1016.12
2018-08-03T08:17:19.053Z,1016.11
2018-08-03T08:17:44.544Z,1016.11
2018-08-03T08:18:10.050Z,1016.11
2018-08-03T08:18:35.558Z,1016.1
2018-08-03T08:19:01.132Z,1016.1
2018-08-03T08:19:26.654Z,1016.11
2018-08-03T08:19:52.263Z,1016.08
2018-08-03T08:20:17.735Z,1016.08
2018-08-03T08:20:43.250Z,1016.06
2018-08-03T08:21:08.749Z,1016.05
2018-08-03T08:21:34.270Z,1016.08
2018-08-03T08:21:59.755Z,1016.06
2018-08-03T08:22:25.271Z,1016.08
2018-08-03T08:22:50.768Z,1016.1
2018-08-03T08:23:16.276Z,1016.08
2018-08-03T08:23:41.857Z,1016.09
2018-08-03T08:24:07.353Z,1016.11
2018-08-03T08:25:11.022Z,1016.06
2018-08-03T08:25:36.595Z,1016.06
2018-08-03T08:26:35.144Z,1016.06
2018-08-03T08:27:00.654Z,1016.05
2018-08-03T08:27:26.129Z,1016.04
2018-08-03T08:27:51.624Z,1016.06
2018-08-03T08:28:17.147Z,1016.04
2018-08-03T08:28:42.691Z,1016.04
2018-08-03T08:29:08.200Z,1016.07
2018-08-03T08:29:33.729Z,1016.05
2018-08-03T08:29:59.250Z,1016.04
2018-08-03T08:30:24.731Z,1016.03
2018-08-03T08:30:50.252Z,1016.07
2018-08-03T08:31:15.855Z,1016.01
2018-08-03T08:31:41.388Z,1016.02
2018-08-03T08:32:06.823Z,1016.04
2018-08-03T08:32:32.337Z,1016.01
2018-08-03T08:32:57.815Z,1015.99
2018-08-03T08:33:23.377Z,1015.98
2018-08-03T08:33:48.812Z,1015.98
2018-08-03T08:34:14.334Z,1016.01
2018-08-03T08:34:39.834Z,1015.99
2018-08-03T08:35:05.331Z,1015.99
2018-08-03T08:35:30.892Z,1015.98
2018-08-03T08:35:56.337Z,1015.99
2018-08-03T08:36:21.845Z,1015.98
2018-08-03T08:36:47.371Z,1015.97
2018-08-03T08:37:12.915Z,1015.97
2018-08-03T08:37:38.464Z,1015.97
2018-08-03T08:38:03.956Z,1015.96
2018-08-03T08:38:29.474Z,1015.96
2018-08-03T08:38:55.015Z,1015.97
2018-08-03T08:39:20.535Z,1015.97
2018-08-03T08:39:46.111Z,1015.99
2018-08-03T08:40:11.540Z,1015.95
2018-08-03T08:40:37.071Z,1015.93
2018-08-03T08:41:02.614Z,1015.95
2018-08-03T08:41:28.119Z,1015.92
2018-08-03T08:41:53.648Z,1015.92
2018-08-03T08:42:19.169Z,1015.92
2018-08-03T08:42:44.676Z,1015.94
2018-08-03T08:43:10.177Z,1015.91
2018-08-03T08:43:35.816Z,1015.92
2018-08-03T08:44:01.259Z,1015.93
2018-08-03T08:44:26.795Z,1015.89
2018-08-03T08:44:52.340Z,1015.92
2018-08-03T08:45:17.807Z,1015.92
2018-08-03T08:45:43.367Z,1015.95
2018-08-03T08:46:08.932Z,1015.97
2018-08-03T08:46:34.455Z,1015.95
2018-08-03T08:46:59.997Z,1015.96
2018-08-03T08:47:25.562Z,1015.94
2018-08-03T08:47:51.077Z,1015.95
2018-08-03T08:48:16.577Z,1015.9
2018-08-03T08:48:42.092Z,1015.94
2018-08-03T08:49:07.601Z,1015.95
2018-08-03T08:49:33.117Z,1015.9
2018-08-03T08:49:58.651Z,1015.93
2018-08-03T08:50:24.116Z,1015.92
2018-08-03T08:51:22.672Z,1015.88
2018-08-03T08:51:48.273Z,1015.87
2018-08-03T08:52:13.738Z,1015.89
2018-08-03T08:52:39.365Z,1015.91
2018-08-03T08:53:04.852Z,1015.85
2018-08-03T08:53:30.386Z,1015.85
2018-08-03T08:53:55.906Z,1015.85
2018-08-03T08:54:21.437Z,1015.88
2018-08-03T08:54:47.008Z,1015.85
2018-08-03T08:55:12.459Z,1015.86
2018-08-03T08:55:37.921Z,1015.85
2018-08-03T08:56:03.396Z,1015.84
2018-08-03T08:56:28.939Z,1015.86
2018-08-03T08:56:54.443Z,1015.84
2018-08-03T08:57:19.998Z,1015.87
2018-08-03T08:57:45.552Z,1015.84
2018-08-03T08:58:10.990Z,1015.88
2018-08-03T08:58:36.490Z,1015.83
2018-08-03T08:59:02.058Z,1015.83
2018-08-03T09:00:05.186Z,1015.84
2018-08-03T09:00:32.040Z,1015.87
2018-08-03T09:00:57.697Z,1015.85
2018-08-03T09:01:23.027Z,1015.86
2018-08-03T09:01:48.544Z,1015.84
2018-08-03T09:02:13.962Z,1015.85
2018-08-03T09:02:39.519Z,1015.85
2018-08-03T09:03:05.150Z,1015.86
2018-08-03T09:03:30.581Z,1015.82
2018-08-03T09:03:56.052Z,1015.82
2018-08-03T09:04:21.541Z,1015.84
2018-08-03T09:04:47.125Z,1015.86
2018-08-03T09:05:12.652Z,1015.79
2018-08-03T09:05:38.299Z,1015.81
2018-08-03T09:06:04.194Z,1015.77
2018-08-03T09:06:29.669Z,1015.78
2018-08-03T09:06:55.184Z,1015.79
2018-08-03T09:07:20.615Z,1015.79
2018-08-03T09:07:46.146Z,1015.81
2018-08-03T09:08:11.643Z,1015.8
2018-08-03T09:08:37.134Z,1015.77
2018-08-03T09:09:02.658Z,1015.77
2018-08-03T09:10:11.435Z,1015.73
2018-08-03T09:10:36.943Z,1015.72
2018-08-03T09:11:02.483Z,1015.75
2018-08-03T09:11:27.953Z,1015.77
2018-08-03T09:11:53.459Z,1015.75
2018-08-03T09:12:19.020Z,1015.75
2018-08-03T09:12:44.546Z,1015.71
2018-08-03T09:13:10.219Z,1015.74
2018-08-03T09:13:35.597Z,1015.73
2018-08-03T09:14:49.423Z,1015.74
2018-08-03T09:15:15.037Z,1015.72
2018-08-03T09:15:40.498Z,1015.69
2018-08-03T09:16:05.987Z,1015.67
2018-08-03T09:16:31.494Z,1015.68
2018-08-03T09:16:57.066Z,1015.69
2018-08-03T09:17:22.542Z,1015.68
2018-08-03T09:17:48.049Z,1015.75
2018-08-03T09:18:13.616Z,1015.73
2018-08-03T09:18:39.149Z,1015.72
2018-08-03T09:19:04.705Z,1015.71
2018-08-03T09:19:30.366Z,1015.69
2018-08-03T09:19:55.855Z,1015.7
2018-08-03T09:20:21.370Z,1015.71
2018-08-03T09:20:46.876Z,1015.67
2018-08-03T09:21:12.351Z,1015.71
2018-08-03T09:21:37.826Z,1015.69
2018-08-03T09:22:03.414Z,1015.66
2018-08-03T09:22:28.892Z,1015.65
2018-08-03T09:22:54.362Z,1015.66
2018-08-03T09:23:19.867Z,1015.66
2018-08-03T09:23:45.399Z,1015.62
2018-08-03T09:24:10.900Z,1015.64
2018-08-03T09:24:36.476Z,1015.62
2018-08-03T09:25:01.938Z,1015.63
2018-08-03T09:25:27.457Z,1015.65
2018-08-03T09:25:52.945Z,1015.62
2018-08-03T09:26:18.453Z,1015.66
2018-08-03T09:26:43.996Z,1015.66
2018-08-03T09:27:09.527Z,1015.63
2018-08-03T09:27:35.025Z,1015.62
2018-08-03T09:28:00.514Z,1015.64
2018-08-03T09:28:26.059Z,1015.62